Waynesboro, Pennsylvania
Current Conditions -  °F | °C
As of 6:53 PM on Monday 20 Oct 2014 (Local Time) from KRYT Reporting Station
Overcast Overcast  
Wind Chill: 55°   Ceiling: 8000
Heat Index: 55°   Visibility: 10mi
Dew Point: 43°   Wind: 0mph
Humidity: 64%   Direction: NA
Pressure: 29.93"   Gusts: NA
Location:  39.76°N, 77.58°W
Report Text: KRYT 202253Z AUTO 00000KT 10SM OVC080 13/06 A2993 RMK AO2 SLP141 T01280061 $
Loading
Personal Weather Stations






























Interactive Weather Map
Tropical Storm Tracking
New forecast layout! Learn more

10-Day Weather Forecast

Advertisements
Track Severe Weather on mobile